createdAt,value
2019-04-04T00:00:07.570Z,99609.54
2019-04-04T00:02:36.937Z,99606.05
2019-04-04T00:05:06.564Z,99601.64
2019-04-04T00:07:35.924Z,99590.01
2019-04-04T00:10:05.863Z,99593.88
2019-04-04T00:12:35.203Z,99583.19
2019-04-04T00:15:04.571Z,99570.41
2019-04-04T00:17:33.948Z,99570.02
2019-04-04T00:20:03.329Z,99564.13
2019-04-04T00:22:35.185Z,99561.23
2019-04-04T00:25:03.792Z,99553.12
2019-04-04T00:27:33.171Z,99542.78
2019-04-04T00:30:02.553Z,99537.67
2019-04-04T00:32:31.908Z,99527.42
2019-04-04T00:35:01.252Z,99526.48
2019-04-04T00:37:30.641Z,99515.80
2019-04-04T00:40:02.044Z,99502.42
2019-04-04T00:42:31.417Z,99496.41
2019-04-04T00:45:00.817Z,99492.89
2019-04-04T00:47:32.381Z,99486.92
2019-04-04T00:50:06.154Z,99486.08
2019-04-04T00:52:34.465Z,99480.52
2019-04-04T00:55:03.930Z,99473.61
2019-04-04T00:57:33.311Z,99466.84
2019-04-04T01:00:02.678Z,99463.52
2019-04-04T01:02:32.013Z,99459.25
2019-04-04T01:05:02.246Z,99447.23
2019-04-04T01:07:31.642Z,99444.28
2019-04-04T01:10:01.005Z,99444.64
2019-04-04T01:12:30.351Z,99437.37
2019-04-04T01:15:00.133Z,99435.24
2019-04-04T01:17:30.109Z,99427.09
2019-04-04T01:19:59.461Z,99426.34
2019-04-04T01:22:28.820Z,99420.05
2019-04-04T01:24:59.066Z,99406.37
2019-04-04T01:27:29.242Z,99403.02
2019-04-04T01:29:58.639Z,99401.36
2019-04-04T01:32:28.013Z,99392.02
2019-04-04T01:34:57.383Z,99389.44
2019-04-04T01:37:27.318Z,99381.39
2019-04-04T01:39:59.900Z,99376.13
2019-04-04T01:42:29.219Z,99369.61
2019-04-04T01:44:58.520Z,99361.32
2019-04-04T01:47:27.858Z,99366.78
2019-04-04T01:49:57.190Z,99358.19
2019-04-04T01:52:28.659Z,99354.77
2019-04-04T01:54:58.132Z,99350.45
2019-04-04T01:57:27.483Z,99344.44
2019-04-04T01:59:56.791Z,99342.24
2019-04-04T02:02:26.154Z,99328.48
2019-04-04T02:04:55.879Z,99326.20
2019-04-04T02:07:25.737Z,99322.87
2019-04-04T02:09:55.080Z,99314.37
2019-04-04T02:12:24.415Z,99307.08
2019-04-04T02:14:55.171Z,99303.10
2019-04-04T02:17:24.479Z,99300.45
2019-04-04T02:19:55.773Z,99292.70
2019-04-04T02:22:24.861Z,99290.19
2019-04-04T02:24:54.267Z,99281.23
2019-04-04T02:27:23.597Z,99283.98
2019-04-04T02:29:52.903Z,99272.52
2019-04-04T02:32:26.107Z,99270.03
2019-04-04T02:34:55.649Z,99268.25
2019-04-04T02:37:25.016Z,99259.21
2019-04-04T02:39:54.348Z,99252.69
2019-04-04T02:42:23.694Z,99249.11
2019-04-04T02:44:53.051Z,99247.37
2019-04-04T02:47:22.399Z,99236.48
2019-04-04T02:49:51.719Z,99234.58
2019-04-04T02:52:21.074Z,99228.87
2019-04-04T02:54:50.474Z,99222.31
2019-04-04T02:57:19.814Z,99217.98
2019-04-04T02:59:52.815Z,99213.66
2019-04-04T03:02:20.310Z,99208.10
2019-04-04T03:04:49.668Z,99202.58
2019-04-04T03:07:19.009Z,99200.84
2019-04-04T03:09:48.345Z,99199.90
2019-04-04T03:12:17.687Z,99189.95
2019-04-04T03:14:50.266Z,99185.17
2019-04-04T03:17:18.081Z,99176.48
2019-04-04T03:19:49.183Z,99172.61
2019-04-04T03:22:18.488Z,99166.53
2019-04-04T03:24:47.859Z,99166.53
2019-04-04T03:27:17.251Z,99160.91
2019-04-04T03:29:46.742Z,99159.69
2019-04-04T03:32:16.783Z,99154.52
2019-04-04T03:34:49.805Z,99147.70
2019-04-04T03:37:17.759Z,99147.70
2019-04-04T03:39:47.085Z,99143.35
2019-04-04T03:42:16.436Z,99143.84
2019-04-04T03:44:45.759Z,99133.11
2019-04-04T03:47:15.097Z,99130.08
2019-04-04T03:49:44.417Z,99122.39
2019-04-04T03:52:13.762Z,99116.77
2019-04-04T03:54:43.112Z,99116.77
2019-04-04T03:57:12.557Z,99114.19
2019-04-04T03:59:41.865Z,99111.70
2019-04-04T04:02:11.223Z,99109.13
2019-04-04T04:04:40.557Z,99100.61
2019-04-04T04:07:13.836Z,99103.19
2019-04-04T04:09:41.043Z,99098.96
2019-04-04T04:12:11.390Z,99093.34
2019-04-04T04:14:40.779Z,99090.83
2019-04-04T04:17:11.576Z,99094.70
2019-04-04T04:19:41.169Z,99088.24
2019-04-04T04:22:12.952Z,99089.98
2019-04-04T04:24:41.568Z,99080.11
2019-04-04T04:27:15.569Z,99076.62
2019-04-04T04:29:44.028Z,99074.03
2019-04-04T04:32:13.338Z,99067.96
2019-04-04T04:34:42.771Z,99071.45
2019-04-04T04:37:12.107Z,99067.58
2019-04-04T04:39:41.610Z,99058.53
2019-04-04T04:42:10.964Z,99054.27
2019-04-04T04:44:40.267Z,99049.95
2019-04-04T04:47:09.645Z,99051.69
2019-04-04T04:49:38.944Z,99053.37
2019-04-04T04:52:08.261Z,99051.69
2019-04-04T04:54:37.597Z,99049.11
2019-04-04T04:57:06.930Z,99046.08
2019-04-04T04:59:36.256Z,99046.53
2019-04-04T05:02:05.713Z,99042.20
2019-04-04T05:04:35.026Z,99035.67
2019-04-04T05:07:07.059Z,99036.97
2019-04-04T05:09:35.491Z,99031.80
2019-04-04T05:12:04.914Z,99026.25
2019-04-04T05:14:34.251Z,99021.46
2019-04-04T05:17:03.596Z,99024.05
2019-04-04T05:19:32.920Z,99020.52
2019-04-04T05:22:02.263Z,99017.94
2019-04-04T05:24:31.611Z,99017.42
2019-04-04T05:27:00.923Z,99016.13
2019-04-04T05:29:30.261Z,99014.45
2019-04-04T05:31:59.569Z,99007.99
2019-04-04T05:34:30.437Z,99010.58
2019-04-04T05:37:00.054Z,99001.92
2019-04-04T05:39:31.287Z,99006.59
2019-04-04T05:42:01.173Z,99007.44
2019-04-04T05:44:30.656Z,99004.85
2019-04-04T05:46:59.985Z,99009.19
2019-04-04T05:49:29.301Z,99008.73
2019-04-04T05:51:58.676Z,99014.34
2019-04-04T05:54:28.060Z,99006.59
2019-04-04T05:56:57.407Z,99004.02
2019-04-04T05:59:26.742Z,99003.11
2019-04-04T06:01:56.102Z,98994.97
2019-04-04T06:04:26.889Z,98997.48
2019-04-04T06:06:56.230Z,98999.23
2019-04-04T06:09:25.673Z,98996.19
2019-04-04T06:11:55.607Z,99000.06
2019-04-04T06:14:24.921Z,98994.00
2019-04-04T06:16:54.257Z,98994.91
2019-04-04T06:19:23.610Z,98997.10
2019-04-04T06:21:52.918Z,99001.43
2019-04-04T06:24:22.293Z,99010.02
2019-04-04T06:26:51.640Z,99010.41
2019-04-04T06:29:20.996Z,99011.31
2019-04-04T06:31:50.285Z,99011.77
2019-04-04T06:34:19.621Z,99010.86
2019-04-04T06:36:49.611Z,99009.56
2019-04-04T06:39:19.065Z,99001.81
2019-04-04T06:41:48.398Z,98998.39
2019-04-04T06:44:17.778Z,99003.56
2019-04-04T06:46:47.117Z,98991.09
2019-04-04T06:49:16.447Z,98998.32
2019-04-04T06:51:46.607Z,98994.91
2019-04-04T06:54:16.776Z,99000.91
2019-04-04T06:56:46.080Z,99006.53
2019-04-04T06:59:15.405Z,99010.30
2019-04-04T07:01:44.796Z,99007.82
2019-04-04T07:04:17.066Z,99003.56
2019-04-04T07:06:45.183Z,98999.69
2019-04-04T07:09:18.077Z,98991.59
2019-04-04T07:11:48.548Z,98993.61
2019-04-04T07:14:20.655Z,98993.44
2019-04-04T07:16:51.864Z,98994.91
2019-04-04T07:19:21.447Z,98995.39
2019-04-04T07:21:51.365Z,98987.22
2019-04-04T07:24:22.653Z,98986.41
2019-04-04T07:26:51.990Z,98994.06
2019-04-04T07:29:22.984Z,98993.61
2019-04-04T07:31:52.406Z,98990.19
2019-04-04T07:34:21.752Z,98983.27
2019-04-04T07:36:52.296Z,98987.04
2019-04-04T07:39:21.642Z,98985.67
2019-04-04T07:41:50.955Z,98976.98
2019-04-04T07:44:22.997Z,98974.77
2019-04-04T07:46:51.382Z,98973.86
2019-04-04T07:49:21.150Z,98969.32
2019-04-04T07:51:51.786Z,98965.64
2019-04-04T07:54:21.145Z,98974.33
2019-04-04T07:56:50.459Z,98972.64
2019-04-04T07:59:19.793Z,98967.38
2019-04-04T08:01:51.465Z,98967.39
2019-04-04T08:04:20.242Z,98965.35
2019-04-04T08:06:49.559Z,98968.75
2019-04-04T08:09:18.948Z,98974.47
2019-04-04T08:11:48.385Z,98981.14
2019-04-04T08:14:17.686Z,98978.09
2019-04-04T08:16:47.040Z,98989.16
2019-04-04T08:19:19.496Z,98983.17
2019-04-04T08:21:48.891Z,98990.84
2019-04-04T08:24:18.242Z,98997.59
2019-04-04T08:26:47.646Z,99001.27
2019-04-04T08:29:16.955Z,99017.36
2019-04-04T08:31:46.272Z,99004.80
2019-04-04T08:34:15.589Z,99005.16
2019-04-04T08:36:45.042Z,99004.14
2019-04-04T08:39:14.364Z,99002.20
2019-04-04T08:41:43.687Z,99000.34
2019-04-04T08:44:13.021Z,98992.41
2019-04-04T08:46:42.445Z,98997.77
2019-04-04T08:49:11.809Z,98999.34
2019-04-04T08:51:41.153Z,98994.82
2019-04-04T08:54:10.479Z,98994.08
2019-04-04T08:56:39.857Z,98998.50
2019-04-04T08:59:09.177Z,98998.31
2019-04-04T09:01:38.508Z,98995.53
2019-04-04T09:04:07.866Z,99001.70
2019-04-04T09:06:37.187Z,98994.59
2019-04-04T09:09:07.724Z,99001.69
2019-04-04T09:11:37.065Z,98999.37
2019-04-04T09:14:06.425Z,98995.97
2019-04-04T09:16:35.743Z,98997.72
2019-04-04T09:19:05.108Z,98996.62
2019-04-04T09:21:34.437Z,98998.64
2019-04-04T09:24:03.761Z,98992.52
2019-04-04T09:26:33.136Z,98992.59
2019-04-04T09:29:02.498Z,98990.42
2019-04-04T09:31:31.807Z,98990.53
2019-04-04T09:34:01.157Z,98989.31
2019-04-04T09:36:30.510Z,98989.61
2019-04-04T09:38:59.823Z,99008.66
2019-04-04T09:41:30.180Z,99023.41
2019-04-04T09:43:59.520Z,99015.56
2019-04-04T09:46:28.864Z,99005.89
2019-04-04T09:48:58.197Z,99003.59
2019-04-04T09:51:27.752Z,99008.40
2019-04-04T09:53:57.176Z,99004.89
2019-04-04T09:56:26.528Z,99004.25
2019-04-04T09:58:55.868Z,99008.36
2019-04-04T10:01:25.266Z,99000.17
2019-04-04T10:03:55.693Z,99007.59
2019-04-04T10:06:25.043Z,99010.84
2019-04-04T10:08:54.369Z,99009.87
2019-04-04T10:11:23.711Z,99008.09
2019-04-04T10:13:53.087Z,99004.01
2019-04-04T10:16:22.389Z,99004.41
2019-04-04T10:18:51.741Z,99000.55
2019-04-04T10:21:21.062Z,99047.38
2019-04-04T10:23:50.403Z,99024.52
2019-04-04T10:26:19.714Z,99009.08
2019-04-04T10:28:49.165Z,99008.48
2019-04-04T10:31:18.494Z,99016.77
2019-04-04T10:33:47.838Z,99004.92
2019-04-04T10:36:17.156Z,99004.91
2019-04-04T10:38:46.491Z,99006.89
2019-04-04T10:41:15.802Z,99009.66
2019-04-04T10:43:45.163Z,99012.63
2019-04-04T10:46:14.474Z,99015.56
2019-04-04T10:48:43.795Z,99010.36
2019-04-04T10:51:13.131Z,99005.91
2019-04-04T10:53:42.478Z,99012.97
2019-04-04T10:56:11.822Z,99009.57
2019-04-04T10:58:41.145Z,99012.33
2019-04-04T11:01:10.462Z,99008.45
2019-04-04T11:03:39.793Z,99025.37
2019-04-04T11:06:09.152Z,99011.52
2019-04-04T11:08:38.500Z,99009.76
2019-04-04T11:11:07.838Z,99003.28
2019-04-04T11:13:37.196Z,99001.82
2019-04-04T11:16:06.531Z,99005.63
2019-04-04T11:18:35.872Z,99002.78
2019-04-04T11:21:05.200Z,98992.44
2019-04-04T11:23:34.542Z,98987.37
2019-04-04T11:26:04.006Z,98995.66
2019-04-04T11:28:33.326Z,98997.04
2019-04-04T11:31:02.651Z,99007.34
2019-04-04T11:33:31.993Z,98970.96
2019-04-04T11:36:01.419Z,98967.40
2019-04-04T11:38:30.779Z,98987.53
2019-04-04T11:41:00.121Z,98994.66
2019-04-04T11:43:29.445Z,98987.55
2019-04-04T11:45:58.772Z,98988.92
2019-04-04T11:48:28.091Z,98987.55
2019-04-04T11:50:57.438Z,98980.13
2019-04-04T11:53:26.777Z,98988.09
2019-04-04T11:55:56.140Z,99012.70
2019-04-04T11:58:25.464Z,99003.44
2019-04-04T12:00:56.206Z,99014.72
2019-04-04T12:03:25.514Z,99002.41
2019-04-04T12:05:54.839Z,99011.45
2019-04-04T12:08:24.159Z,99020.25
2019-04-04T12:10:53.500Z,99011.91
2019-04-04T12:13:22.850Z,99037.79
2019-04-04T12:15:52.201Z,99007.55
2019-04-04T12:18:21.549Z,99026.52
2019-04-04T12:20:50.963Z,99011.05
2019-04-04T12:23:20.268Z,99002.18
2019-04-04T12:25:49.625Z,98991.84
2019-04-04T12:28:18.959Z,99000.80
2019-04-04T12:30:48.269Z,99006.55
2019-04-04T12:33:17.629Z,99017.39
2019-04-04T12:35:46.943Z,99023.67
2019-04-04T12:38:16.256Z,99010.78
2019-04-04T12:40:45.613Z,99006.75
2019-04-04T12:43:14.927Z,99007.56
2019-04-04T12:45:44.329Z,99039.63
2019-04-04T12:48:13.676Z,99031.80
2019-04-04T12:50:42.979Z,99023.92
2019-04-04T12:53:12.360Z,99030.58
2019-04-04T12:55:41.681Z,99032.96
2019-04-04T12:58:11.078Z,99041.55
2019-04-04T13:00:43.499Z,99057.14
2019-04-04T13:03:12.806Z,99043.72
2019-04-04T13:05:42.486Z,99031.98
2019-04-04T13:08:13.253Z,99032.59
2019-04-04T13:10:42.599Z,99028.59
2019-04-04T13:13:11.942Z,99021.36
2019-04-04T13:15:41.315Z,99032.73
2019-04-04T13:18:10.622Z,99017.95
2019-04-04T13:20:39.973Z,99016.79
2019-04-04T13:23:09.291Z,99000.26
2019-04-04T13:25:38.626Z,99000.96
2019-04-04T13:28:07.940Z,98997.94
2019-04-04T13:30:37.300Z,98995.45
2019-04-04T13:33:06.611Z,98999.61
2019-04-04T13:35:37.854Z,99008.11
2019-04-04T13:38:06.973Z,99015.70
2019-04-04T13:40:45.228Z,99010.75
2019-04-04T13:43:07.364Z,99016.77
2019-04-04T13:45:36.720Z,99028.15
2019-04-04T13:48:06.075Z,99009.55
2019-04-04T13:50:35.390Z,98993.32
2019-04-04T13:53:04.841Z,98996.14
2019-04-04T13:55:34.163Z,99010.22
2019-04-04T13:58:03.586Z,99005.38
2019-04-04T14:00:32.894Z,98998.86
2019-04-04T14:03:02.237Z,99014.38
2019-04-04T14:05:31.551Z,99023.16
2019-04-04T14:08:01.437Z,99018.90
2019-04-04T14:10:30.873Z,99018.90
2019-04-04T14:13:00.249Z,99022.11
2019-04-04T14:15:29.573Z,99033.92
2019-04-04T14:17:58.917Z,99028.93
2019-04-04T14:20:28.265Z,99012.13
2019-04-04T14:22:57.610Z,99019.49
2019-04-04T14:25:29.269Z,99034.39
2019-04-04T14:27:58.682Z,99031.69
2019-04-04T14:30:28.090Z,99033.59
2019-04-04T14:32:57.407Z,99031.33
2019-04-04T14:35:26.732Z,99037.13
2019-04-04T14:37:56.065Z,99042.47
2019-04-04T14:40:25.417Z,99047.64
2019-04-04T14:42:54.724Z,99031.05
2019-04-04T14:45:24.062Z,99032.66
2019-04-04T14:47:53.378Z,99028.80
2019-04-04T14:50:22.722Z,99015.98
2019-04-04T14:52:52.405Z,99031.34
2019-04-04T14:55:21.805Z,99034.95
2019-04-04T14:57:51.294Z,99045.41
2019-04-04T15:00:20.840Z,99038.56
2019-04-04T15:02:50.240Z,99039.96
2019-04-04T15:05:19.649Z,99038.53
2019-04-04T15:07:48.990Z,99044.93
2019-04-04T15:10:18.321Z,99027.48
2019-04-04T15:12:47.744Z,99032.19
2019-04-04T15:15:17.114Z,99011.59
2019-04-04T15:17:46.444Z,99022.52
2019-04-04T15:20:16.024Z,99027.58
2019-04-04T15:22:45.369Z,99016.09
2019-04-04T15:25:14.721Z,99023.80
2019-04-04T15:27:44.072Z,99013.83
2019-04-04T15:30:13.640Z,99016.92
2019-04-04T15:32:42.997Z,99023.33
2019-04-04T15:35:12.375Z,99023.33
2019-04-04T15:37:41.706Z,99034.38
2019-04-04T15:40:11.349Z,99034.38
2019-04-04T15:42:40.701Z,99049.06
2019-04-04T15:45:10.217Z,99032.09
2019-04-04T15:47:39.567Z,99056.27
2019-04-04T15:50:09.211Z,99028.45
2019-04-04T15:52:38.553Z,99038.30
2019-04-04T15:55:07.877Z,99058.58
2019-04-04T15:57:37.218Z,99058.58
2019-04-04T16:00:07.496Z,99062.81
2019-04-04T16:02:36.869Z,99071.47
2019-04-04T16:05:07.122Z,99067.45
2019-04-04T16:07:36.451Z,99067.77
2019-04-04T16:10:06.846Z,99062.05
2019-04-04T16:12:36.159Z,99055.02
2019-04-04T16:15:05.748Z,99042.48
2019-04-04T16:17:35.120Z,99053.41
2019-04-04T16:20:04.805Z,99057.50
2019-04-04T16:22:34.127Z,99048.83
2019-04-04T16:25:03.501Z,99048.83
2019-04-04T16:27:32.810Z,99049.16
2019-04-04T16:30:02.174Z,99059.07
2019-04-04T16:32:31.553Z,99053.95
2019-04-04T16:35:00.884Z,99060.34
2019-04-04T16:37:30.323Z,99044.01
2019-04-04T16:40:08.929Z,99049.07
2019-04-04T16:42:30.725Z,99033.89
2019-04-04T16:45:00.068Z,99038.36
2019-04-04T16:47:29.849Z,99038.36
2019-04-04T16:49:59.207Z,99044.95
2019-04-04T16:52:29.029Z,99049.74
2019-04-04T16:54:58.368Z,99049.74
2019-04-04T16:57:27.706Z,99047.42
2019-04-04T16:59:57.033Z,99067.55
2019-04-04T17:02:26.471Z,99077.83
2019-04-04T17:04:55.798Z,99079.93
2019-04-04T17:07:25.150Z,99084.38
2019-04-04T17:09:54.509Z,99084.38
2019-04-04T17:12:23.825Z,99094.21
2019-04-04T17:14:53.172Z,99141.88
2019-04-04T17:17:22.548Z,99156.62
2019-04-04T17:19:51.906Z,99170.97
2019-04-04T17:22:21.371Z,99190.28
2019-04-04T17:24:50.717Z,99190.28
2019-04-04T17:27:20.360Z,99190.25
2019-04-04T17:29:49.905Z,99205.52
2019-04-04T17:32:19.522Z,99202.61
2019-04-04T17:34:48.876Z,99210.12
2019-04-04T17:37:18.858Z,99217.25
2019-04-04T17:39:48.360Z,99228.00
2019-04-04T17:42:28.094Z,99236.80
2019-04-04T17:44:49.060Z,99250.09
2019-04-04T17:47:18.348Z,99262.80
2019-04-04T17:49:47.956Z,99267.45
2019-04-04T17:52:17.337Z,99278.02
2019-04-04T17:54:46.839Z,99285.09
2019-04-04T17:57:16.152Z,99287.70
2019-04-04T17:59:45.527Z,99288.62
2019-04-04T18:02:14.873Z,99296.62
2019-04-04T18:04:48.459Z,99297.92
2019-04-04T18:07:15.364Z,99306.30
2019-04-04T18:09:45.678Z,99312.08
2019-04-04T18:12:16.917Z,99315.26
2019-04-04T18:14:46.278Z,99317.11
2019-04-04T18:17:15.679Z,99322.68
2019-04-04T18:19:45.279Z,99333.80
2019-04-04T18:22:14.633Z,99331.66
2019-04-04T18:24:44.080Z,99338.02
2019-04-04T18:27:13.431Z,99344.83
2019-04-04T18:29:42.758Z,99355.89
2019-04-04T18:32:12.112Z,99358.05
2019-04-04T18:34:41.747Z,99365.70
2019-04-04T18:37:11.036Z,99369.99
2019-04-04T18:39:40.375Z,99375.23
2019-04-04T18:42:09.762Z,99378.61
2019-04-04T18:44:39.074Z,99383.61
2019-04-04T18:47:08.423Z,99384.46
2019-04-04T18:49:37.843Z,99388.12
2019-04-04T18:52:07.192Z,99386.75
2019-04-04T18:54:36.510Z,99393.36
2019-04-04T18:57:05.969Z,99394.28
2019-04-04T18:59:35.269Z,99394.85
2019-04-04T19:02:04.905Z,99401.88
2019-04-04T19:04:34.232Z,99404.31
2019-04-04T19:07:03.586Z,99407.10
2019-04-04T19:09:32.906Z,99416.38
2019-04-04T19:12:02.264Z,99419.62
2019-04-04T19:14:31.617Z,99424.08
2019-04-04T19:17:00.964Z,99426.97
2019-04-04T19:19:30.315Z,99429.64
2019-04-04T19:21:59.683Z,99429.48
2019-04-04T19:24:29.058Z,99442.53
2019-04-04T19:26:58.479Z,99447.83
2019-04-04T19:29:27.795Z,99456.64
2019-04-04T19:31:57.283Z,99458.50
2019-04-04T19:34:26.589Z,99462.90
2019-04-04T19:36:55.919Z,99468.30
2019-04-04T19:39:25.242Z,99471.81
2019-04-04T19:41:54.585Z,99470.59
2019-04-04T19:44:23.893Z,99477.28
2019-04-04T19:46:53.245Z,99478.28
2019-04-04T19:49:22.595Z,99478.48
2019-04-04T19:51:51.937Z,99482.91
2019-04-04T19:54:21.247Z,99486.45
2019-04-04T19:56:50.567Z,99494.41
2019-04-04T19:59:19.883Z,99497.01
2019-04-04T20:01:49.262Z,99500.16
2019-04-04T20:04:18.575Z,99508.41
2019-04-04T20:06:47.938Z,99505.53
2019-04-04T20:09:17.266Z,99512.02
2019-04-04T20:11:46.578Z,99507.84
2019-04-04T20:14:15.917Z,99511.80
2019-04-04T20:16:45.278Z,99514.78
2019-04-04T20:19:14.649Z,99523.02
2019-04-04T20:21:43.974Z,99520.98
2019-04-04T20:24:13.275Z,99525.23
2019-04-04T20:26:42.603Z,99520.61
2019-04-04T20:29:11.903Z,99527.47
2019-04-04T20:31:41.260Z,99531.81
2019-04-04T20:34:10.579Z,99535.78
2019-04-04T20:36:39.933Z,99537.56
2019-04-04T20:39:09.439Z,99542.27
2019-04-04T20:41:38.772Z,99544.41
2019-04-04T20:44:08.123Z,99550.98
2019-04-04T20:46:37.456Z,99555.34
2019-04-04T20:49:06.798Z,99561.43
2019-04-04T20:51:36.104Z,99559.40
2019-04-04T20:54:05.438Z,99564.58
2019-04-04T20:56:34.808Z,99565.14
2019-04-04T20:59:04.145Z,99571.17
2019-04-04T21:01:33.474Z,99574.58
2019-04-04T21:04:02.826Z,99576.43
2019-04-04T21:06:32.135Z,99575.13
2019-04-04T21:09:01.444Z,99576.43
2019-04-04T21:11:30.805Z,99569.66
2019-04-04T21:14:00.088Z,99565.77
2019-04-04T21:16:29.431Z,99563.17
2019-04-04T21:18:58.773Z,99567.52
2019-04-04T21:21:28.139Z,99569.20
2019-04-04T21:23:57.468Z,99571.41
2019-04-04T21:26:26.794Z,99577.09
2019-04-04T21:28:56.111Z,99575.86
2019-04-04T21:31:25.453Z,99580.13
2019-04-04T21:33:54.789Z,99582.80
2019-04-04T21:36:24.126Z,99584.94
2019-04-04T21:38:53.480Z,99586.33
2019-04-04T21:41:22.817Z,99586.79
2019-04-04T21:43:52.123Z,99588.99
2019-04-04T21:46:21.456Z,99591.23
2019-04-04T21:48:50.815Z,99594.28
2019-04-04T21:51:20.144Z,99596.03
2019-04-04T21:53:49.454Z,99593.05
2019-04-04T21:56:18.786Z,99599.92
2019-04-04T21:58:48.110Z,99601.77
2019-04-04T22:01:17.669Z,99605.28
2019-04-04T22:03:46.983Z,99614.35
2019-04-04T22:06:16.338Z,99609.72
2019-04-04T22:08:45.653Z,99611.93
2019-04-04T22:11:15.000Z,99613.39
2019-04-04T22:13:44.349Z,99615.08
2019-04-04T22:16:13.759Z,99614.17
2019-04-04T22:18:43.099Z,99615.92
2019-04-04T22:21:12.466Z,99618.05
2019-04-04T22:23:41.819Z,99621.55
2019-04-04T22:26:11.145Z,99625.45
2019-04-04T22:28:40.471Z,99624.15
2019-04-04T22:31:09.838Z,99613.95
2019-04-04T22:33:39.162Z,99612.27
2019-04-04T22:36:08.471Z,99620.53
2019-04-04T22:38:37.792Z,99620.04
2019-04-04T22:41:07.104Z,99623.19
2019-04-04T22:43:36.455Z,99625.88
2019-04-04T22:46:05.820Z,99622.05
2019-04-04T22:48:35.131Z,99627.34
2019-04-04T22:51:04.456Z,99632.23
2019-04-04T22:53:33.803Z,99627.13
2019-04-04T22:56:03.127Z,99635.84
2019-04-04T22:58:32.429Z,99632.95
2019-04-04T23:01:01.785Z,99632.11
2019-04-04T23:03:31.108Z,99628.68
2019-04-04T23:06:00.438Z,99633.86
2019-04-04T23:08:29.749Z,99639.14
2019-04-04T23:10:59.090Z,99638.66
2019-04-04T23:13:28.417Z,99638.83
2019-04-04T23:15:57.774Z,99641.90
2019-04-04T23:18:27.108Z,99647.53
2019-04-04T23:20:56.463Z,99651.03
2019-04-04T23:23:25.786Z,99650.68
2019-04-04T23:25:55.094Z,99649.06
2019-04-04T23:28:24.453Z,99647.86
2019-04-04T23:30:53.817Z,99650.55
2019-04-04T23:33:23.142Z,99651.45
2019-04-04T23:35:52.471Z,99659.33
2019-04-04T23:38:21.811Z,99660.30
2019-04-04T23:40:51.126Z,99658.64
2019-04-04T23:43:20.458Z,99657.80
2019-04-04T23:45:49.874Z,99661.30
2019-04-04T23:48:19.188Z,99660.49
2019-04-04T23:50:48.530Z,99658.71
2019-04-04T23:53:17.851Z,99655.31
2019-04-04T23:55:47.226Z,99663.09
2019-04-04T23:58:16.543Z,99659.55
